createdAt,value
2022-08-17T00:02:25.836Z,48.80
2022-08-17T00:05:32.804Z,47.53
2022-08-17T00:08:48.768Z,48.13
2022-08-17T00:12:40.366Z,50.67
2022-08-17T00:15:15.641Z,50.47
2022-08-17T00:19:06.197Z,53.30
2022-08-17T00:22:32.988Z,47.50
2022-08-17T00:25:09.908Z,52.15
2022-08-17T00:28:12.496Z,47.33
2022-08-17T00:31:14.836Z,50.88
2022-08-17T00:34:17.162Z,45.13
2022-08-17T00:37:19.159Z,51.08
2022-08-17T00:40:21.730Z,50.55
2022-08-17T00:43:34.424Z,50.35
2022-08-17T00:46:41.061Z,48.90
2022-08-17T00:49:43.963Z,57.47
2022-08-17T00:52:56.042Z,52.13
2022-08-17T00:56:01.675Z,51.47
2022-08-17T00:59:07.352Z,47.95
2022-08-17T01:02:12.557Z,49.88
2022-08-17T01:05:23.410Z,48.63
2022-08-17T01:08:29.964Z,45.45
2022-08-17T01:11:33.235Z,46.08
2022-08-17T01:17:37.808Z,46.70
2022-08-17T01:20:48.900Z,62.37
2022-08-17T01:23:51.209Z,52.85
2022-08-17T01:26:53.757Z,61.75
2022-08-17T01:30:02.971Z,59.65
2022-08-17T01:33:05.738Z,76.30
2022-08-17T01:36:08.700Z,66.50
2022-08-17T01:39:23.356Z,65.60
2022-08-17T01:42:36.792Z,62.75
2022-08-17T01:48:47.662Z,60.38
2022-08-17T01:51:50.061Z,61.58
2022-08-17T01:54:53.254Z,60.37
2022-08-17T02:01:00.721Z,58.08
2022-08-17T02:04:06.531Z,61.20
2022-08-17T02:07:08.518Z,59.78
2022-08-17T02:10:19.791Z,57.20
2022-08-17T02:13:22.229Z,57.88
2022-08-17T02:16:24.137Z,53.83
2022-08-17T02:19:26.161Z,52.70
2022-08-17T02:22:29.117Z,55.70
2022-08-17T02:25:33.767Z,54.75
2022-08-17T02:28:36.118Z,60.97
2022-08-17T02:31:38.143Z,53.50
2022-08-17T02:34:40.057Z,57.78
2022-08-17T02:37:44.688Z,60.15
2022-08-17T02:40:53.799Z,59.28
2022-08-17T02:43:55.770Z,61.35
2022-08-17T02:46:57.719Z,59.38
2022-08-17T02:49:59.709Z,62.17
2022-08-17T02:53:02.869Z,60.17
2022-08-17T02:56:07.162Z,63.95
2022-08-17T02:59:09.063Z,57.25
2022-08-17T03:02:12.135Z,55.03
2022-08-17T03:05:17.049Z,57.53
2022-08-17T03:08:19.904Z,54.28
2022-08-17T03:11:22.033Z,57.20
2022-08-17T03:14:26.004Z,51.38
2022-08-17T03:17:28.289Z,54.50
2022-08-17T03:20:32.550Z,52.55
2022-08-17T03:23:40.914Z,45.80
2022-08-17T03:26:44.196Z,50.25
2022-08-17T03:32:49.644Z,46.55
2022-08-17T03:35:51.933Z,52.35
2022-08-17T03:38:53.893Z,47.50
2022-08-17T03:42:31.135Z,49.20
2022-08-17T03:45:52.482Z,48.10
2022-08-17T03:49:13.744Z,51.95
2022-08-17T03:52:34.010Z,50.20
2022-08-17T03:55:56.055Z,51.20
2022-08-17T03:58:58.343Z,49.10
2022-08-17T04:02:11.128Z,49.57
2022-08-17T04:05:15.052Z,57.70
2022-08-17T04:08:16.939Z,45.17
2022-08-17T04:11:18.880Z,45.20
2022-08-17T04:14:21.095Z,44.92
2022-08-17T04:17:27.513Z,48.05
2022-08-17T04:20:29.917Z,47.20
2022-08-17T04:23:34.035Z,47.57
2022-08-17T04:26:53.914Z,47.85
2022-08-17T04:29:56.638Z,46.47
2022-08-17T04:33:06.370Z,48.35
2022-08-17T04:36:09.150Z,47.60
2022-08-17T04:39:11.363Z,47.55
2022-08-17T04:42:17.344Z,49.88
2022-08-17T04:45:19.322Z,50.22
2022-08-17T04:48:21.513Z,51.80
2022-08-17T04:51:30.683Z,51.35
2022-08-17T04:54:32.708Z,49.25
2022-08-17T04:57:39.418Z,49.42
2022-08-17T05:00:44.057Z,48.13
2022-08-17T05:03:46.036Z,47.67
2022-08-17T05:06:50.361Z,52.05
2022-08-17T05:09:52.284Z,49.28
2022-08-17T05:13:02.078Z,47.95
2022-08-17T05:16:04.676Z,49.58
2022-08-17T05:19:06.710Z,51.75
2022-08-17T05:22:08.677Z,47.10
2022-08-17T05:25:10.647Z,49.45
2022-08-17T05:28:13.145Z,45.50
2022-08-17T05:31:16.093Z,45.37
2022-08-17T05:34:17.981Z,46.80
2022-08-17T05:37:19.996Z,43.75
2022-08-17T05:40:22.676Z,47.00
2022-08-17T05:43:34.224Z,44.40
2022-08-17T05:46:41.790Z,44.65
2022-08-17T05:49:43.919Z,43.33
2022-08-17T05:56:29.646Z,43.75
2022-08-17T06:00:08.124Z,40.67
2022-08-17T06:03:28.725Z,37.25
2022-08-17T06:06:53.581Z,39.20
2022-08-17T06:10:03.665Z,39.88
2022-08-17T06:13:17.868Z,41.67
2022-08-17T06:16:34.479Z,38.87
2022-08-17T06:19:45.840Z,37.35
2022-08-17T06:22:56.769Z,37.00
2022-08-17T06:26:05.722Z,36.20
2022-08-17T06:29:35.463Z,37.88
2022-08-17T06:32:39.995Z,37.08
2022-08-17T06:36:09.228Z,34.13
2022-08-17T06:39:32.430Z,34.65
2022-08-17T06:42:54.910Z,33.47
2022-08-17T06:46:16.381Z,34.15
2022-08-17T06:49:38.754Z,33.08
2022-08-17T06:53:15.617Z,31.98
2022-08-17T06:57:02.551Z,32.40
2022-08-17T07:00:13.767Z,32.70
2022-08-17T07:03:35.839Z,31.55
2022-08-17T07:06:47.669Z,29.60
2022-08-17T07:09:51.170Z,28.30
2022-08-17T07:12:58.428Z,25.08
2022-08-17T07:16:25.934Z,27.45
2022-08-17T07:19:31.848Z,29.30
2022-08-17T07:22:59.740Z,26.42
2022-08-17T07:26:09.638Z,24.45
2022-08-17T07:29:16.381Z,22.33
2022-08-17T07:32:24.236Z,21.15
2022-08-17T07:35:37.852Z,22.80
2022-08-17T07:38:57.082Z,22.55
2022-08-17T07:42:04.546Z,26.25
2022-08-17T07:45:28.500Z,25.77
2022-08-17T07:48:35.919Z,28.60
2022-08-17T07:51:42.527Z,34.95
2022-08-17T07:54:44.482Z,27.70
2022-08-17T07:57:57.340Z,30.05
2022-08-17T08:01:10.336Z,28.15
2022-08-17T08:08:28.672Z,25.17
2022-08-17T08:11:36.537Z,24.15
2022-08-17T08:14:39.825Z,24.38
2022-08-17T08:17:57.592Z,23.92
2022-08-17T08:21:04.960Z,28.20
2022-08-17T08:24:12.766Z,19.65
2022-08-17T08:27:33.143Z,20.10
2022-08-17T08:30:41.574Z,17.38
2022-08-17T08:33:46.200Z,20.65
2022-08-17T08:37:12.911Z,18.23
2022-08-17T08:40:41.231Z,18.27
2022-08-17T08:45:00.010Z,20.88
2022-08-17T08:48:05.593Z,20.17
2022-08-17T08:51:39.812Z,19.00
2022-08-17T08:55:22.534Z,20.10
2022-08-17T08:58:32.121Z,20.43
2022-08-17T09:02:03.656Z,20.65
2022-08-17T09:05:14.196Z,21.55
2022-08-17T09:08:25.636Z,19.85
2022-08-17T09:12:02.911Z,21.33
2022-08-17T09:15:22.087Z,20.70
2022-08-17T09:19:00.555Z,20.77
2022-08-17T09:22:17.610Z,18.42
2022-08-17T09:25:29.061Z,26.05
2022-08-17T09:28:36.470Z,18.38
2022-08-17T09:31:49.529Z,19.90
2022-08-17T09:34:55.025Z,18.10
2022-08-17T09:38:15.256Z,20.05
2022-08-17T09:41:20.951Z,17.13
2022-08-17T09:44:55.339Z,20.42
2022-08-17T09:48:08.335Z,18.10
2022-08-17T09:54:40.544Z,18.10
2022-08-17T09:58:09.503Z,16.02
2022-08-17T10:01:43.388Z,17.50
2022-08-17T10:05:13.811Z,17.30
2022-08-17T10:08:25.630Z,15.07
2022-08-17T10:12:17.790Z,21.40
2022-08-17T10:15:52.299Z,16.67
2022-08-17T10:18:54.179Z,13.18
2022-08-17T10:22:34.652Z,12.40
2022-08-17T10:26:14.811Z,11.63
2022-08-17T10:29:24.459Z,14.73
2022-08-17T10:32:45.092Z,14.57
2022-08-17T10:36:11.254Z,14.07
2022-08-17T10:39:23.098Z,13.60
2022-08-17T10:42:32.944Z,15.27
2022-08-17T10:45:47.159Z,10.25
2022-08-17T10:49:11.926Z,11.13
2022-08-17T10:52:30.514Z,16.70
2022-08-17T10:55:32.429Z,15.75
2022-08-17T10:58:55.031Z,11.27
2022-08-17T11:02:15.251Z,13.02
2022-08-17T11:05:40.166Z,12.50
2022-08-17T11:09:00.955Z,17.83
2022-08-17T11:12:43.485Z,13.10
2022-08-17T11:16:08.107Z,12.35
2022-08-17T11:19:37.471Z,13.27
2022-08-17T11:22:58.083Z,10.65
2022-08-17T11:26:08.263Z,15.73
2022-08-17T11:29:24.785Z,12.00
2022-08-17T11:32:59.068Z,17.35
2022-08-17T11:36:31.650Z,11.90
2022-08-17T11:40:01.702Z,13.63
2022-08-17T11:43:15.691Z,15.35
2022-08-17T11:46:23.313Z,11.13
2022-08-17T11:49:58.743Z,11.80
2022-08-17T11:53:00.974Z,14.07
2022-08-17T11:56:04.878Z,11.45
2022-08-17T11:59:40.075Z,11.63
2022-08-17T12:02:48.187Z,11.05
2022-08-17T12:06:01.762Z,10.15
2022-08-17T12:09:07.128Z,12.38
2022-08-17T12:12:20.148Z,11.93
2022-08-17T12:18:35.677Z,12.20
2022-08-17T12:21:41.975Z,13.50
2022-08-17T12:24:56.750Z,11.98
2022-08-17T12:28:05.008Z,14.32
2022-08-17T12:31:21.997Z,11.70
2022-08-17T12:34:29.037Z,12.07
2022-08-17T12:37:35.732Z,14.38
2022-08-17T12:40:38.747Z,13.68
2022-08-17T12:43:40.671Z,13.63
2022-08-17T12:46:53.940Z,12.30
2022-08-17T12:50:08.350Z,16.00
2022-08-17T12:53:35.208Z,12.02
2022-08-17T12:56:37.272Z,16.23
2022-08-17T12:59:50.430Z,14.90
2022-08-17T13:03:02.594Z,12.95
2022-08-17T13:06:07.680Z,14.10
2022-08-17T13:09:35.310Z,13.07
2022-08-17T13:12:42.006Z,11.52
2022-08-17T13:15:59.521Z,18.95
2022-08-17T13:19:16.300Z,13.63
2022-08-17T13:22:23.753Z,11.68
2022-08-17T13:25:28.220Z,12.98
2022-08-17T13:28:36.375Z,11.10
2022-08-17T13:31:52.249Z,15.77
2022-08-17T13:35:15.315Z,11.27
2022-08-17T13:38:39.580Z,14.15
2022-08-17T13:41:41.719Z,16.83
2022-08-17T13:44:43.685Z,11.65
2022-08-17T13:47:45.582Z,12.97
2022-08-17T13:50:56.669Z,17.03
2022-08-17T13:54:01.901Z,13.57
2022-08-17T13:57:17.890Z,12.30
2022-08-17T14:00:32.517Z,12.55
2022-08-17T14:03:34.496Z,15.85
2022-08-17T14:07:08.661Z,15.50
2022-08-17T14:10:12.829Z,16.95
2022-08-17T14:13:15.431Z,15.85
2022-08-17T14:16:17.466Z,12.48
2022-08-17T14:19:22.115Z,11.47
2022-08-17T14:22:31.909Z,12.88
2022-08-17T14:25:33.841Z,12.90
2022-08-17T14:28:36.507Z,11.45
2022-08-17T14:31:39.070Z,14.73
2022-08-17T14:34:43.588Z,12.00
2022-08-17T14:37:48.157Z,13.70
2022-08-17T14:40:50.348Z,13.55
2022-08-17T14:43:53.504Z,11.70
2022-08-17T14:46:55.783Z,9.57
2022-08-17T14:49:59.269Z,11.07
2022-08-17T14:53:03.846Z,16.42
2022-08-17T14:56:06.008Z,11.13
2022-08-17T14:59:08.011Z,11.37
2022-08-17T15:02:10.843Z,7.95
2022-08-17T15:05:14.450Z,6.90
2022-08-17T15:08:19.578Z,8.82
2022-08-17T15:11:21.688Z,12.85
2022-08-17T15:14:23.635Z,19.90
2022-08-17T15:17:25.592Z,22.40
2022-08-17T15:20:48.680Z,24.75
2022-08-17T15:23:51.204Z,19.23
2022-08-17T15:26:53.147Z,9.73
2022-08-17T15:29:55.119Z,7.13
2022-08-17T15:32:59.571Z,11.27
2022-08-17T15:36:06.606Z,4.85
2022-08-17T15:39:08.771Z,4.82
2022-08-17T15:42:10.748Z,5.88
2022-08-17T15:45:14.276Z,8.23
2022-08-17T15:48:16.270Z,9.90
2022-08-17T15:51:28.110Z,8.55
2022-08-17T15:54:31.707Z,9.65
2022-08-17T15:57:36.772Z,12.65
2022-08-17T16:00:48.267Z,11.07
2022-08-17T16:04:05.012Z,13.25
2022-08-17T16:07:14.275Z,13.27
2022-08-17T16:13:23.824Z,26.50
2022-08-17T16:16:26.456Z,14.73
2022-08-17T16:19:28.555Z,14.07
2022-08-17T16:22:42.711Z,16.27
2022-08-17T16:25:53.085Z,11.63
2022-08-17T16:28:56.979Z,11.60
2022-08-17T16:32:07.003Z,8.98
2022-08-17T16:35:12.022Z,12.13
2022-08-17T16:38:13.950Z,13.88
2022-08-17T16:41:36.226Z,12.18
2022-08-17T16:44:38.201Z,12.38
2022-08-17T16:47:42.103Z,12.50
2022-08-17T16:51:02.085Z,11.88
2022-08-17T16:54:07.398Z,13.57
2022-08-17T16:57:13.850Z,15.80
2022-08-17T17:00:16.998Z,13.82
2022-08-17T17:10:07.797Z,17.60
2022-08-17T17:13:28.708Z,19.20
2022-08-17T17:16:59.994Z,21.65
2022-08-17T17:20:10.614Z,20.33
2022-08-17T17:23:33.712Z,17.75
2022-08-17T17:26:55.385Z,18.08
2022-08-17T17:30:13.752Z,17.73
2022-08-17T17:33:29.027Z,16.65
2022-08-17T17:36:51.548Z,17.38
2022-08-17T17:39:57.504Z,18.42
2022-08-17T17:43:20.457Z,18.50
2022-08-17T17:49:36.063Z,19.75
2022-08-17T17:52:45.341Z,19.77
2022-08-17T17:56:04.784Z,19.83
2022-08-17T17:59:43.296Z,21.23
2022-08-17T18:03:11.214Z,23.02
2022-08-17T18:06:47.179Z,28.67
2022-08-17T18:09:55.568Z,29.23
2022-08-17T18:13:15.991Z,27.10
2022-08-17T18:16:19.289Z,23.60
2022-08-17T18:19:22.556Z,21.63
2022-08-17T18:22:24.973Z,25.10
2022-08-17T18:25:47.928Z,26.80
2022-08-17T18:28:51.973Z,30.55
2022-08-17T18:32:17.833Z,28.00
2022-08-17T18:35:19.743Z,29.83
2022-08-17T18:38:33.989Z,31.98
2022-08-17T18:41:44.815Z,29.38
2022-08-17T18:44:47.517Z,31.65
2022-08-17T18:47:55.968Z,30.55
2022-08-17T18:51:21.347Z,32.40
2022-08-17T18:58:32.061Z,32.90
2022-08-17T19:02:16.040Z,32.20
2022-08-17T19:05:39.613Z,34.85
2022-08-17T19:08:42.087Z,36.90
2022-08-17T19:11:44.488Z,42.53
2022-08-17T19:14:46.767Z,41.63
2022-08-17T19:18:21.607Z,37.95
2022-08-17T19:21:38.144Z,38.25
2022-08-17T19:24:47.707Z,36.42
2022-08-17T19:28:02.440Z,39.55
2022-08-17T19:31:13.748Z,40.22
2022-08-17T19:34:17.232Z,42.72
2022-08-17T19:38:12.689Z,41.45
2022-08-17T19:41:21.876Z,40.83
2022-08-17T19:44:32.742Z,47.45
2022-08-17T19:48:13.967Z,47.10
2022-08-17T19:51:24.821Z,44.08
2022-08-17T19:54:34.109Z,42.53
2022-08-17T19:58:03.312Z,49.33
2022-08-17T20:01:10.597Z,43.55
2022-08-17T20:04:34.791Z,45.00
2022-08-17T20:07:48.199Z,46.47
2022-08-17T20:14:12.607Z,48.38
2022-08-17T20:17:14.567Z,47.97
2022-08-17T20:20:29.728Z,54.65
2022-08-17T20:23:52.694Z,51.28
2022-08-17T20:27:31.972Z,47.27
2022-08-17T20:30:37.648Z,47.97
2022-08-17T20:33:39.790Z,50.72
2022-08-17T20:37:02.315Z,49.47
2022-08-17T20:40:04.408Z,53.10
2022-08-17T20:43:36.227Z,53.30
2022-08-17T20:46:39.572Z,51.85
2022-08-17T20:49:47.721Z,55.13
2022-08-17T20:52:52.688Z,53.38
2022-08-17T20:55:55.786Z,54.20
2022-08-17T21:02:18.476Z,54.33
2022-08-17T21:05:58.839Z,47.97
2022-08-17T21:09:15.753Z,45.65
2022-08-17T21:13:04.384Z,50.17
2022-08-17T21:16:30.161Z,51.70
2022-08-17T21:19:34.991Z,44.13
2022-08-17T21:23:19.757Z,48.63
2022-08-17T21:26:34.096Z,52.13
2022-08-17T21:30:12.400Z,47.00
2022-08-17T21:33:17.139Z,46.20
2022-08-17T21:36:24.880Z,49.30
2022-08-17T21:39:39.701Z,54.17
2022-08-17T21:42:58.241Z,49.85
2022-08-17T21:46:07.057Z,52.95
2022-08-17T21:49:13.668Z,48.58
2022-08-17T21:52:18.113Z,50.35
2022-08-17T21:55:29.493Z,47.28
2022-08-17T21:58:48.257Z,45.30
2022-08-17T22:01:55.994Z,42.15
2022-08-17T22:05:08.247Z,43.50
2022-08-17T22:08:20.361Z,41.35
2022-08-17T22:11:22.929Z,41.42
2022-08-17T22:14:53.444Z,47.47
2022-08-17T22:17:56.164Z,47.15
2022-08-17T22:21:02.575Z,44.42
2022-08-17T22:24:15.391Z,43.90
2022-08-17T22:27:19.287Z,45.58
2022-08-17T22:30:36.854Z,42.72
2022-08-17T22:33:52.510Z,42.95
2022-08-17T22:37:28.502Z,43.15
2022-08-17T22:40:33.356Z,43.92
2022-08-17T22:43:38.695Z,43.58
2022-08-17T22:46:57.939Z,44.55
2022-08-17T22:50:11.931Z,43.42
2022-08-17T22:53:36.320Z,43.28
2022-08-17T22:57:05.422Z,38.28
2022-08-17T23:00:37.381Z,40.25
2022-08-17T23:03:57.497Z,40.97
2022-08-17T23:06:59.485Z,47.03
2022-08-17T23:10:06.341Z,42.28
2022-08-17T23:13:11.927Z,43.80
2022-08-17T23:16:15.106Z,52.78
2022-08-17T23:22:23.668Z,52.25
2022-08-17T23:25:31.067Z,50.97
2022-08-17T23:28:37.041Z,51.65
2022-08-17T23:31:39.989Z,56.15
2022-08-17T23:34:44.745Z,54.22
2022-08-17T23:37:47.994Z,52.58
2022-08-17T23:40:50.015Z,54.38
2022-08-17T23:43:53.625Z,55.85
2022-08-17T23:46:55.989Z,55.40
2022-08-17T23:49:57.923Z,51.77
2022-08-17T23:53:05.524Z,49.58
2022-08-17T23:56:11.071Z,46.97
2022-08-17T23:59:15.415Z,58.00
